Time;durP1;ratioP1;P1;durP2;ratioP2;P2;SDS_P1;SDS_P2;PMS_P1;PMS_P2;Temp;Humidity;BMP_temperature;BMP_pressure;BME280_temperature;BME280_humidity;BME280_pressure;Samples;Min_cycle;Max_cycle;Signal;HPM_P1;HPM_P2
2022/04/05 00:00:59;;;;;;;18.83;8.32;;;;;;;9.24;97.13;100676.88;5096563;28;20054;-79
2022/04/05 00:03:25;;;;;;;14.25;7.55;;;;;;;9.23;97.08;100680.38;5079847;28;20094;-80
2022/04/05 00:05:50;;;;;;;23.02;8.00;;;;;;;9.25;97.04;100685.56;5113087;28;20035;-80
2022/04/05 00:08:16;;;;;;;15.82;7.50;;;;;;;9.22;97.07;100671.69;5131377;28;20099;-79
2022/04/05 00:10:42;;;;;;;16.77;7.75;;;;;;;9.20;97.32;100683.09;5112783;28;20119;-79
2022/04/05 00:13:08;;;;;;;19.27;7.82;;;;;;;9.17;97.18;100680.63;5113909;28;20060;-80
2022/04/05 00:15:35;;;;;;;15.40;7.80;;;;;;;9.17;97.21;100678.84;5131122;28;20047;-80
2022/04/05 00:18:01;;;;;;;15.23;7.57;;;;;;;9.17;97.09;100683.25;5131219;28;20040;-80
2022/04/05 00:20:27;;;;;;;18.63;8.68;;;;;;;9.16;97.05;100687.59;5130585;28;20035;-80
2022/04/05 00:22:53;;;;;;;23.48;8.95;;;;;;;9.13;97.34;100681.63;5131269;28;20118;-80
2022/04/05 00:25:19;;;;;;;16.80;7.93;;;;;;;9.11;97.28;100686.06;5130764;28;20027;-80
2022/04/05 00:27:45;;;;;;;15.95;8.32;;;;;;;9.09;97.42;100691.34;5095709;28;20046;-80
2022/04/05 00:30:11;;;;;;;14.77;8.23;;;;;;;9.06;97.48;100703.66;5113399;28;20027;-80
2022/04/05 00:32:37;;;;;;;14.52;7.03;;;;;;;9.05;97.39;100692.38;5095758;28;20038;-80
2022/04/05 00:35:03;;;;;;;14.23;7.47;;;;;;;9.06;97.54;100681.03;5112237;28;20032;-80
2022/04/05 00:37:29;;;;;;;10.57;6.72;;;;;;;9.04;97.69;100685.44;5127265;28;20045;-80
2022/04/05 00:39:54;;;;;;;14.27;5.97;;;;;;;9.01;97.44;100683.78;5131124;28;20036;-80
2022/04/05 00:42:20;;;;;;;9.68;5.72;;;;;;;9.00;97.39;100683.84;5112766;28;20047;-79
2022/04/05 00:44:45;;;;;;;18.25;7.00;;;;;;;8.98;97.21;100677.81;5131587;28;20027;-80
2022/04/05 00:47:20;;;;;;;19.95;6.80;;;;;;;9.00;97.59;100678.63;5096388;28;20061;-80
2022/04/05 00:49:47;;;;;;;12.15;5.97;;;;;;;8.95;97.33;100678.81;5132044;28;20043;-79
2022/04/05 00:52:16;;;;;;;14.95;6.80;;;;;;;8.94;97.37;100682.31;5130522;28;20052;-80
2022/04/05 00:54:44;;;;;;;14.47;6.20;;;;;;;8.95;97.35;100689.25;5110965;28;20039;-80
2022/04/05 00:57:15;;;;;;;14.77;5.60;;;;;;;8.96;97.30;100685.72;5112992;28;20036;-80
2022/04/05 00:59:42;;;;;;;15.48;6.38;;;;;;;8.96;97.41;100683.09;5131316;28;20034;-80
2022/04/05 01:02:48;;;;;;;17.15;5.80;;;;;;;8.96;97.03;100690.94;5110704;28;20034;-79
2022/04/05 01:05:17;;;;;;;20.23;7.53;;;;;;;8.93;97.55;100688.47;5122791;28;20087;-80
2022/04/05 01:07:45;;;;;;;10.60;5.55;;;;;;;8.95;97.35;100688.38;5094494;28;20037;-80
2022/04/05 01:10:11;;;;;;;13.77;6.93;;;;;;;8.92;97.53;100694.56;5110185;28;20018;-80
2022/04/05 01:12:37;;;;;;;14.57;6.07;;;;;;;8.91;97.38;100690.25;5095860;28;20111;-79
2022/04/05 01:15:03;;;;;;;11.68;6.38;;;;;;;8.89;97.65;100694.69;5114167;28;20096;-79
2022/04/05 01:17:30;;;;;;;10.90;5.57;;;;;;;8.89;97.50;100689.44;5111264;28;20107;-80
2022/04/05 01:19:55;;;;;;;9.80;6.03;;;;;;;8.88;97.43;100693.00;5130964;28;20042;-80
2022/04/05 01:22:21;;;;;;;14.00;5.50;;;;;;;8.88;97.51;100689.50;5110892;28;20040;-80
2022/04/05 01:24:46;;;;;;;10.50;5.53;;;;;;;8.85;97.33;100693.09;5131424;28;20051;-80
2022/04/05 01:27:19;;;;;;;14.52;6.00;;;;;;;8.85;97.31;100690.47;5113700;28;20022;-79
2022/04/05 01:29:45;;;;;;;16.83;6.00;;;;;;;8.83;97.14;100689.69;5099058;28;20360;-79
2022/04/05 01:32:10;;;;;;;13.63;5.68;;;;;;;8.83;97.15;100687.91;5131109;28;20036;-80
2022/04/05 01:34:38;;;;;;;11.88;5.80;;;;;;;8.83;96.82;100694.91;5114771;28;20087;-80
2022/04/05 01:37:06;;;;;;;7.88;4.60;;;;;;;8.82;96.67;100691.44;5138902;28;20040;-79
2022/04/05 01:39:33;;;;;;;11.45;5.22;;;;;;;8.81;97.04;100687.13;5112681;28;20039;-80
2022/04/05 01:42:07;;;;;;;13.35;4.93;;;;;;;8.84;96.72;100688.75;5134996;28;20067;-80
2022/04/05 01:44:34;;;;;;;7.70;4.97;;;;;;;8.82;96.81;100680.13;5113481;28;20296;-80
2022/04/05 01:47:09;;;;;;;8.15;4.70;;;;;;;8.85;96.63;100685.25;5096151;28;20028;-80
2022/04/05 01:49:35;;;;;;;12.60;6.15;;;;;;;8.83;96.80;100679.25;5131906;28;20042;-80
2022/04/05 01:52:00;;;;;;;10.23;5.32;;;;;;;8.82;96.53;100674.91;5114071;28;20088;-80
2022/04/05 01:54:26;;;;;;;15.95;5.30;;;;;;;8.81;96.40;100678.44;5131374;28;20040;-80
2022/04/05 01:56:52;;;;;;;6.30;4.70;;;;;;;8.81;96.24;100678.44;5113453;28;20043;-80
2022/04/05 01:59:23;;;;;;;8.05;5.53;;;;;;;8.80;95.75;100674.13;5113207;28;20020;-80
2022/04/05 02:01:49;;;;;;;10.93;5.47;;;;;;;8.80;95.63;100672.38;5113192;28;20058;-80
2022/04/05 02:04:15;;;;;;;15.90;5.30;;;;;;;8.81;95.81;100673.22;5113600;28;20039;-80
2022/04/05 02:06:42;;;;;;;7.93;5.35;;;;;;;8.81;95.39;100673.22;5115806;28;20110;-80
2022/04/05 02:09:10;;;;;;;10.63;6.03;;;;;;;8.81;95.57;100673.22;5127103;28;20057;-80
2022/04/05 02:11:35;;;;;;;8.32;5.68;;;;;;;8.81;95.62;100668.00;5112150;28;20016;-80
2022/04/05 02:14:01;;;;;;;11.20;5.55;;;;;;;8.81;95.54;100673.22;5136552;28;20115;-80
2022/04/05 02:16:26;;;;;;;10.45;6.25;;;;;;;8.79;95.36;100675.88;5145684;28;20043;-80
2022/04/05 02:18:52;;;;;;;10.40;5.75;;;;;;;8.81;95.39;100676.69;5143880;28;20084;-79
2022/04/05 02:21:18;;;;;;;13.65;7.47;;;;;;;8.80;95.91;100675.00;5116935;28;20426;-79
2022/04/05 02:23:43;;;;;;;12.52;6.70;;;;;;;8.79;96.04;100682.88;5098620;28;20027;-79
2022/04/05 02:26:10;;;;;;;8.70;6.50;;;;;;;8.78;96.33;100678.53;5116814;28;20043;-79
2022/04/05 02:28:35;;;;;;;10.43;7.13;;;;;;;8.76;96.54;100677.75;5081451;28;20110;-79
2022/04/05 02:31:01;;;;;;;11.40;6.38;;;;;;;8.76;96.55;100667.31;5116486;28;20043;-79
2022/04/05 02:33:26;;;;;;;12.13;6.72;;;;;;;8.75;96.46;100676.91;5116405;28;20039;-79
2022/04/05 02:35:52;;;;;;;11.57;6.50;;;;;;;8.75;96.48;100674.28;5102039;28;20231;-79
2022/04/05 02:38:18;;;;;;;7.70;6.07;;;;;;;8.76;96.08;100673.38;5120480;28;20160;-79
2022/04/05 02:40:43;;;;;;;7.28;5.78;;;;;;;8.73;96.06;100676.13;5120122;28;20051;-79
2022/04/05 02:43:09;;;;;;;12.95;6.90;;;;;;;8.73;96.19;100678.72;5102350;28;20340;-79
2022/04/05 02:45:34;;;;;;;9.95;6.40;;;;;;;8.73;96.27;100675.25;5118949;28;20027;-79
2022/04/05 02:48:00;;;;;;;8.30;6.57;;;;;;;8.71;96.11;100677.06;5119079;27;20047;-80
2022/04/05 02:50:26;;;;;;;9.00;6.50;;;;;;;8.71;96.41;100675.28;5117456;28;20043;-79
2022/04/05 02:52:52;;;;;;;8.52;5.95;;;;;;;8.73;96.36;100670.03;5101897;28;20092;-79
2022/04/05 02:55:18;;;;;;;8.85;7.13;;;;;;;8.72;96.36;100669.19;5126108;27;20043;-79
2022/04/05 02:57:45;;;;;;;10.90;7.40;;;;;;;8.70;96.70;100664.94;5122457;27;20039;-79
2022/04/05 03:00:15;;;;;;;9.40;6.75;;;;;;;8.71;96.88;100670.06;5116281;28;20035;-79
2022/04/05 03:02:41;;;;;;;10.70;7.93;;;;;;;8.73;96.95;100670.03;5102091;28;20081;-79
2022/04/05 03:05:07;;;;;;;9.88;7.38;;;;;;;8.71;96.91;100664.84;5101352;28;20285;-79
2022/04/05 03:07:37;;;;;;;11.55;7.70;;;;;;;8.71;97.04;100658.78;5119381;28;20039;-79
2022/04/05 03:10:04;;;;;;;10.85;7.93;;;;;;;8.72;96.84;100673.56;5120028;28;20039;-79
2022/04/05 03:12:30;;;;;;;15.02;7.82;;;;;;;8.74;96.79;100663.91;5129040;27;20040;-79
2022/04/05 03:14:56;;;;;;;14.75;8.65;;;;;;;8.73;96.71;100665.66;5101649;28;20404;-79
2022/04/05 03:17:21;;;;;;;13.27;9.05;;;;;;;8.74;97.04;100663.91;5119115;28;20111;-79
2022/04/05 03:19:46;;;;;;;9.50;7.05;;;;;;;8.75;97.10;100658.63;5087108;27;20034;-79
2022/04/05 03:22:16;;;;;;;10.77;8.57;;;;;;;8.72;97.56;100658.72;5101892;28;20027;-79
2022/04/05 03:24:42;;;;;;;13.30;7.20;;;;;;;8.74;97.53;100658.69;5101092;28;20087;-79
2022/04/05 03:27:07;;;;;;;15.90;8.52;;;;;;;8.74;97.70;100658.69;5102138;28;20040;-79
2022/04/05 03:29:32;;;;;;;15.88;8.32;;;;;;;8.74;97.80;100658.69;5101006;28;20253;-79
2022/04/05 03:31:58;;;;;;;16.02;7.63;;;;;;;8.71;98.02;100662.22;5101409;28;20047;-79
2022/04/05 03:34:24;;;;;;;13.02;7.50;;;;;;;8.72;97.93;100661.34;5118898;28;20031;-79
2022/04/05 03:36:49;;;;;;;11.38;6.30;;;;;;;8.69;98.06;100663.22;5101068;28;20039;-79
2022/04/05 03:39:15;;;;;;;14.30;7.30;;;;;;;8.65;98.13;100662.47;5100639;28;20353;-79
2022/04/05 03:41:41;;;;;;;11.60;7.68;;;;;;;8.65;98.24;100660.69;5119323;28;20136;-79
2022/04/05 03:44:07;;;;;;;14.48;7.72;;;;;;;8.63;98.17;100653.84;5084529;28;20050;-79
2022/04/05 03:46:33;;;;;;;14.85;8.23;;;;;;;8.63;98.04;100657.28;5099057;28;20031;-79
2022/04/05 03:48:59;;;;;;;9.38;7.38;;;;;;;8.64;98.23;100653.78;5119198;28;20034;-79
2022/04/05 03:51:24;;;;;;;16.15;7.57;;;;;;;8.63;98.45;100653.84;5118419;28;20039;-79
2022/04/05 03:53:49;;;;;;;19.40;7.57;;;;;;;8.64;98.38;100653.78;5119390;28;20063;-79
2022/04/05 03:56:15;;;;;;;13.45;7.63;;;;;;;8.67;98.49;100665.88;5099993;28;20044;-79
2022/04/05 03:58:40;;;;;;;12.25;6.88;;;;;;;8.67;98.30;100654.59;5104771;28;20119;-79
2022/04/05 04:01:07;;;;;;;12.15;7.72;;;;;;;8.65;98.27;100652.03;5100459;28;20100;-80
2022/04/05 04:03:35;;;;;;;24.50;7.68;;;;;;;8.67;98.35;100657.19;5099583;28;20047;-79
2022/04/05 04:06:01;;;;;;;15.60;6.80;;;;;;;8.64;98.18;100651.19;5117745;28;20050;-79
2022/04/05 04:08:26;;;;;;;16.38;8.35;;;;;;;8.66;98.23;100653.75;5082965;28;20200;-79
2022/04/05 04:10:52;;;;;;;16.33;8.13;;;;;;;8.67;98.20;100654.59;5100482;28;20046;-79
2022/04/05 04:13:18;;;;;;;15.70;7.35;;;;;;;8.70;97.92;100657.09;5118896;28;20054;-79
2022/04/05 04:15:43;;;;;;;19.02;7.30;;;;;;;8.67;98.04;100660.66;5099654;28;20118;-79
2022/04/05 04:18:09;;;;;;;17.92;8.13;;;;;;;8.68;97.89;100653.66;5100141;28;20058;-79
2022/04/05 04:20:35;;;;;;;15.45;6.97;;;;;;;8.66;98.15;100653.75;5117404;28;20277;-79
2022/04/05 04:23:00;;;;;;;13.80;7.47;;;;;;;8.64;97.98;100651.19;5083456;28;20031;-79
2022/04/05 04:25:26;;;;;;;17.27;7.72;;;;;;;8.64;98.21;100660.75;5099910;28;20047;-79
2022/04/05 04:27:51;;;;;;;10.75;7.15;;;;;;;8.64;98.12;100651.19;5100205;28;20039;-79
2022/04/05 04:30:17;;;;;;;13.77;7.10;;;;;;;8.65;98.31;100652.03;5098700;28;20046;-79
2022/04/05 04:32:42;;;;;;;14.38;6.68;;;;;;;8.63;98.18;100657.28;5117411;28;20019;-79
2022/04/05 04:35:08;;;;;;;18.75;6.82;;;;;;;8.65;98.30;100652.03;5099991;28;20024;-79
2022/04/05 04:37:34;;;;;;;13.13;7.60;;;;;;;8.64;98.44;100648.56;5117658;28;20101;-79
2022/04/05 04:40:00;;;;;;;10.00;6.30;;;;;;;8.65;97.93;100657.25;5065515;28;20020;-79
2022/04/05 04:42:25;;;;;;;12.93;6.38;;;;;;;8.67;97.92;100652.81;5081805;28;20035;-79
2022/04/05 04:44:51;;;;;;;12.68;6.40;;;;;;;8.65;97.72;100652.03;5118020;28;20239;-79
2022/04/05 04:47:17;;;;;;;15.57;6.15;;;;;;;8.66;97.55;100658.97;5117378;28;20102;-79
2022/04/05 04:49:43;;;;;;;11.23;6.18;;;;;;;8.68;97.70;100656.28;5117442;28;20394;-79
2022/04/05 04:52:09;;;;;;;11.77;6.38;;;;;;;8.68;97.64;100657.16;5117632;28;20055;-79
2022/04/05 04:54:35;;;;;;;13.05;6.13;;;;;;;8.68;97.49;100657.16;5098671;28;20127;-79
2022/04/05 04:57:00;;;;;;;13.73;5.88;;;;;;;8.69;97.18;100658.84;5117263;28;20039;-79
2022/04/05 04:59:26;;;;;;;11.00;5.53;;;;;;;8.71;96.47;100669.22;5095863;28;20041;-79
2022/04/05 05:01:51;;;;;;;9.88;5.82;;;;;;;8.71;96.60;100658.78;5096894;28;20039;-79
2022/04/05 05:04:17;;;;;;;12.88;6.43;;;;;;;8.75;97.02;100663.84;5109413;28;20119;-79
2022/04/05 05:06:42;;;;;;;10.25;5.13;;;;;;;8.74;96.80;100659.53;5094394;28;20027;-79
2022/04/05 05:09:08;;;;;;;7.53;5.30;;;;;;;8.76;96.73;100654.25;5099277;28;20047;-79
2022/04/05 05:11:33;;;;;;;15.52;6.15;;;;;;;8.77;96.73;100654.19;5116417;28;20077;-79
2022/04/05 05:13:58;;;;;;;8.43;5.18;;;;;;;8.79;96.43;100656.75;5117082;28;20283;-79
2022/04/05 05:16:24;;;;;;;8.82;5.25;;;;;;;8.76;96.20;100660.31;5098724;28;20057;-79
2022/04/05 05:18:49;;;;;;;9.50;5.35;;;;;;;8.77;96.05;100667.25;5117016;28;20055;-79
2022/04/05 05:21:17;;;;;;;10.38;4.88;;;;;;;8.79;96.22;100668.06;5098819;28;20042;-79
2022/04/05 05:23:42;;;;;;;13.93;5.40;;;;;;;8.79;95.94;100661.97;5114835;28;20035;-79
2022/04/05 05:26:08;;;;;;;15.82;6.20;;;;;;;8.81;96.23;100670.59;5099278;28;20031;-79
2022/04/05 05:28:33;;;;;;;7.55;5.88;;;;;;;8.82;96.33;100667.06;5098064;28;20242;-79
2022/04/05 05:30:59;;;;;;;8.02;5.60;;;;;;;8.83;96.26;100674.00;5087769;28;20039;-79
2022/04/05 05:33:24;;;;;;;11.07;5.97;;;;;;;8.85;96.27;100666.97;5114584;28;20045;-79
2022/04/05 05:35:50;;;;;;;8.73;4.82;;;;;;;8.87;96.18;100680.81;5097638;28;20086;-79
2022/04/05 05:38:15;;;;;;;6.72;4.82;;;;;;;8.84;95.99;100676.56;5116123;28;20065;-79
2022/04/05 05:40:41;;;;;;;8.63;5.03;;;;;;;8.87;96.12;100690.44;5107390;28;20370;-79
2022/04/05 05:43:06;;;;;;;12.77;5.95;;;;;;;8.87;96.62;100683.44;5098924;28;20043;-79
2022/04/05 05:45:35;;;;;;;7.53;5.15;;;;;;;8.86;96.02;100679.13;5081004;28;20031;-80
2022/04/05 05:48:01;;;;;;;;;;;;;;;8.86;95.76;100675.66;5089666;28;20232;-79
2022/04/05 05:50:26;;;;;;;7.07;5.25;;;;;;;8.88;96.03;100687.75;5115770;28;19923;-79
2022/04/05 05:52:52;;;;;;;13.00;6.10;;;;;;;8.87;96.00;100683.44;5080471;28;20286;-80
2022/04/05 05:55:19;;;;;;;12.68;5.20;;;;;;;8.88;95.99;100693.00;5092895;28;20074;-79
2022/04/05 05:57:45;;;;;;;10.82;5.35;;;;;;;8.90;96.00;100693.78;5091655;28;20031;-79
2022/04/05 06:00:21;;;;;;;11.00;4.78;;;;;;;8.89;95.96;100694.69;5095784;28;20074;-79
2022/04/05 06:03:01;;;;;;;5.68;3.58;;;;;;;8.89;95.54;100683.38;5094606;28;20032;-79
2022/04/05 06:05:27;;;;;;;8.82;4.25;;;;;;;8.90;95.67;100691.16;5112495;28;20046;-79
2022/04/05 06:07:53;;;;;;;12.57;4.70;;;;;;;8.90;95.49;100685.94;5113429;28;20028;-79
2022/04/05 06:10:20;;;;;;;12.05;4.72;;;;;;;8.90;95.47;100685.94;5081287;28;20209;-79
2022/04/05 06:12:48;;;;;;;6.97;4.32;;;;;;;8.90;95.43;100692.94;5118390;28;20095;-79
2022/04/05 06:15:15;;;;;;;12.20;4.73;;;;;;;8.91;95.50;100690.25;5100332;28;20046;-79
2022/04/05 06:17:42;;;;;;;8.57;4.40;;;;;;;8.94;95.72;100697.97;5099617;28;20063;-79
2022/04/05 06:20:09;;;;;;;8.10;3.83;;;;;;;8.95;95.41;100699.69;5100163;28;20035;-78
2022/04/05 06:22:49;;;;;;;5.60;3.72;;;;;;;8.93;95.09;100701.50;5117798;27;20247;-78
2022/04/05 06:25:35;;;;;;;8.55;4.20;;;;;;;8.94;95.30;100687.53;5110699;28;20219;-78
2022/04/05 06:28:03;;;;;;;14.23;4.75;;;;;;;8.96;95.19;100690.09;5116917;27;20079;-78
2022/04/05 06:30:32;;;;;;;7.68;3.72;;;;;;;8.97;95.32;100703.09;5098859;28;20035;-78
2022/04/05 06:33:19;;;;;;;10.88;4.20;;;;;;;8.98;95.30;100701.34;5111117;27;20043;-79
2022/04/05 06:35:48;;;;;;;10.88;4.10;;;;;;;8.97;94.77;100702.25;5111207;27;20031;-78
2022/04/05 06:38:14;;;;;;;7.85;3.85;;;;;;;8.98;95.04;100710.00;5115021;27;20032;-78
2022/04/05 06:40:43;;;;;;;7.28;4.38;;;;;;;8.99;95.17;100711.72;5099502;27;20107;-78
2022/04/05 06:43:09;;;;;;;7.63;4.20;;;;;;;8.99;94.73;100709.13;5107748;27;20065;-78
2022/04/05 06:45:35;;;;;;;8.60;3.83;;;;;;;9.01;94.88;100696.00;5100068;27;20470;-78
2022/04/05 06:48:02;;;;;;;8.77;4.03;;;;;;;9.02;94.92;100706.41;5074864;28;20035;-78
2022/04/05 06:50:27;;;;;;;7.63;3.90;;;;;;;9.06;94.64;100714.09;5105675;27;20040;-78
2022/04/05 06:52:55;;;;;;;5.63;3.50;;;;;;;9.07;94.62;100708.00;5120169;27;20250;-78
2022/04/05 06:55:23;;;;;;;6.38;3.42;;;;;;;9.07;94.53;100713.22;5122985;27;20055;-78
2022/04/05 06:57:49;;;;;;;6.75;4.18;;;;;;;9.08;94.28;100707.06;5111173;28;20043;-79
2022/04/05 07:00:17;;;;;;;5.07;3.30;;;;;;;9.11;94.50;100717.41;5099100;27;20339;-78
2022/04/05 07:02:43;;;;;;;10.23;4.07;;;;;;;9.12;94.35;100721.75;5084415;28;20039;-78
2022/04/05 07:05:11;;;;;;;6.63;3.20;;;;;;;9.12;94.42;100730.41;5071317;28;20108;-78
2022/04/05 07:07:38;;;;;;;5.05;3.10;;;;;;;9.12;94.26;100714.75;5086805;28;20031;-78
2022/04/05 07:10:05;;;;;;;5.93;3.15;;;;;;;9.14;93.97;100728.59;5085692;28;20972;-78
2022/04/05 07:12:31;;;;;;;7.88;3.88;;;;;;;9.14;94.15;100733.81;5111086;27;20086;-78
2022/04/05 07:14:57;;;;;;;7.90;3.97;;;;;;;9.17;94.10;100732.88;5130054;27;20554;-78
2022/04/05 07:17:22;;;;;;;7.07;3.33;;;;;;;9.17;93.68;100731.13;5091276;28;20031;-78
2022/04/05 07:19:48;;;;;;;7.32;3.28;;;;;;;9.19;93.99;100731.06;5098510;28;20046;-78
2022/04/05 07:22:13;;;;;;;8.15;2.80;;;;;;;9.19;93.66;100723.22;5104453;27;20036;-78
2022/04/05 07:24:39;;;;;;;10.68;3.92;;;;;;;9.20;93.62;100727.53;5099754;27;20102;-78
2022/04/05 07:27:04;;;;;;;6.57;3.55;;;;;;;9.20;93.73;100727.53;5097245;27;20039;-78
2022/04/05 07:29:29;;;;;;;6.20;3.65;;;;;;;9.19;93.98;100725.84;5109009;27;20031;-78
2022/04/05 07:31:55;;;;;;;6.45;3.00;;;;;;;9.21;93.53;100731.84;5095185;28;20143;-78
2022/04/05 07:34:21;;;;;;;11.65;3.25;;;;;;;9.21;93.74;100729.25;5110390;28;20043;-78
2022/04/05 07:36:46;;;;;;;6.97;3.40;;;;;;;9.22;94.00;100734.41;5113547;27;20153;-78
2022/04/05 07:39:12;;;;;;;5.32;3.00;;;;;;;9.23;93.76;100724.81;5085201;27;20089;-78
2022/04/05 07:41:38;;;;;;;9.15;3.15;;;;;;;9.21;93.55;100722.25;5083341;28;20039;-78
2022/04/05 07:44:04;;;;;;;7.90;3.70;;;;;;;9.23;93.79;100733.50;5113756;27;20289;-78
2022/04/05 07:46:29;;;;;;;8.68;3.63;;;;;;;9.23;93.80;100722.19;5106492;28;20062;-78
2022/04/05 07:48:55;;;;;;;7.30;3.35;;;;;;;9.22;93.64;100726.56;5124651;27;20092;-78
2022/04/05 07:51:20;;;;;;;8.73;3.15;;;;;;;9.25;93.97;100720.38;5087960;28;20039;-78
2022/04/05 07:53:46;;;;;;;10.02;4.10;;;;;;;9.26;93.76;100722.09;5104266;27;20046;-78
2022/04/05 07:56:13;;;;;;;6.85;3.58;;;;;;;9.27;94.19;100729.00;5112108;28;20047;-78
2022/04/05 07:58:43;;;;;;;9.18;4.05;;;;;;;9.26;94.20;100729.06;5131254;27;20037;-78
2022/04/05 08:01:09;;;;;;;7.15;3.80;;;;;;;9.28;94.10;100727.22;5113678;27;20038;-78
2022/04/05 08:03:35;;;;;;;11.40;4.50;;;;;;;9.28;94.53;100720.25;5121292;27;20388;-78
2022/04/05 08:06:00;;;;;;;9.02;4.40;;;;;;;9.29;94.70;100727.19;5097463;28;20035;-78
2022/04/05 08:08:26;;;;;;;5.38;3.45;;;;;;;9.29;94.58;100723.72;5111015;28;20271;-78
2022/04/05 08:10:51;;;;;;;10.68;3.60;;;;;;;9.28;94.36;100728.09;5122728;27;20043;-78
2022/04/05 08:13:17;;;;;;;7.15;3.75;;;;;;;9.31;94.23;100734.97;5123124;27;20062;-78
2022/04/05 08:15:43;;;;;;;5.47;3.58;;;;;;;9.32;94.42;100734.06;5121872;27;20036;-78
2022/04/05 08:18:11;;;;;;;8.50;3.65;;;;;;;9.34;94.26;100729.63;5100104;28;20092;-78
2022/04/05 08:20:39;;;;;;;12.37;3.70;;;;;;;9.35;94.31;100733.94;5101901;28;20371;-78
2022/04/05 08:23:06;;;;;;;8.27;4.22;;;;;;;9.36;94.24;100733.03;5121113;27;20301;-78
2022/04/05 08:25:31;;;;;;;6.93;3.45;;;;;;;9.36;94.46;100738.28;5090256;27;20238;-78
2022/04/05 08:27:57;;;;;;;5.05;4.10;;;;;;;9.37;94.42;100738.22;5096909;28;20046;-79
2022/04/05 08:30:23;;;;;;;4.22;3.45;;;;;;;9.40;94.35;100742.47;5095184;28;20043;-78
2022/04/05 08:32:49;;;;;;;7.88;3.78;;;;;;;9.40;94.42;100748.56;5116877;27;20027;-78
2022/04/05 08:35:17;;;;;;;5.82;3.53;;;;;;;9.40;94.54;100740.72;5132161;27;20176;-78
2022/04/05 08:37:43;;;;;;;5.77;3.53;;;;;;;9.40;94.12;100750.31;5109996;28;20030;-78
2022/04/05 08:40:10;;;;;;;4.25;2.97;;;;;;;9.38;94.57;100745.13;5079407;28;20288;-78
2022/04/05 08:42:39;;;;;;;7.75;3.22;;;;;;;9.40;94.25;100742.47;5093702;27;20258;-78
2022/04/05 08:45:10;;;;;;;9.52;4.18;;;;;;;9.41;94.48;100747.63;5092942;27;20032;-78
2022/04/05 08:47:38;;;;;;;6.15;3.90;;;;;;;9.42;94.28;100745.88;5117424;27;20024;-78
2022/04/05 08:50:04;;;;;;;6.88;3.38;;;;;;;9.44;94.25;100759.75;5125600;27;20031;-78
2022/04/05 08:52:29;;;;;;;7.50;3.38;;;;;;;9.44;94.15;100733.63;5126880;27;20042;-78
2022/04/05 08:54:56;;;;;;;6.18;3.22;;;;;;;9.47;94.24;100743.94;5086722;28;20102;-78
2022/04/05 08:57:21;;;;;;;6.65;3.33;;;;;;;9.47;94.04;100745.72;5121260;27;20326;-78
2022/04/05 08:59:47;;;;;;;4.35;3.05;;;;;;;9.48;93.92;100744.78;5114378;28;20035;-78
2022/04/05 09:02:14;;;;;;;9.68;3.40;;;;;;;9.50;94.02;100740.38;5096674;28;20075;-78
2022/04/05 09:04:39;;;;;;;8.60;3.97;;;;;;;9.52;93.94;100762.09;5125927;27;20048;-78
2022/04/05 09:07:21;;;;;;;5.93;3.55;;;;;;;9.54;93.83;100762.88;5116051;27;20038;-78
2022/04/05 09:10:06;;;;;;;10.73;3.20;;;;;;;9.54;93.72;100755.03;5085694;27;20134;-78
2022/04/05 09:12:57;;;;;;;3.20;2.90;;;;;;;9.54;93.72;100755.03;5112390;27;20201;-78
2022/04/05 09:15:25;;;;;;;4.53;3.75;;;;;;;9.55;93.71;100754.09;5092278;28;20257;-78
2022/04/05 09:17:51;;;;;;;8.45;3.63;;;;;;;9.54;93.85;100753.25;5098527;28;20036;-78
2022/04/05 09:20:19;;;;;;;5.63;3.15;;;;;;;9.55;93.84;100768.06;5070903;28;20103;-78
2022/04/05 09:22:45;;;;;;;8.48;3.63;;;;;;;9.54;93.36;100755.03;5089217;28;20437;-78
2022/04/05 09:25:12;;;;;;;5.57;3.08;;;;;;;9.56;93.56;100767.13;5107345;27;20058;-78
2022/04/05 09:27:55;;;;;;;7.18;3.00;;;;;;;9.58;93.79;100764.47;5087778;28;20207;-78
2022/04/05 09:30:31;;;;;;;4.13;3.05;;;;;;;9.60;93.86;100765.25;5116439;28;20029;-78
2022/04/05 09:32:57;;;;;;;8.65;3.17;;;;;;;9.60;93.81;100766.13;5114684;28;20077;-78
2022/04/05 09:35:39;;;;;;;9.60;3.60;;;;;;;9.62;93.85;100763.41;5112553;28;20097;-80
2022/04/05 09:38:14;;;;;;;6.55;3.15;;;;;;;9.63;93.56;100772.97;5116497;28;20027;-78
2022/04/05 09:40:40;;;;;;;7.07;3.30;;;;;;;9.64;93.53;100784.28;5114769;28;20245;-78
2022/04/05 09:43:24;;;;;;;5.43;3.22;;;;;;;9.68;93.63;100775.41;5109052;28;20287;-78
2022/04/05 09:45:51;;;;;;;5.97;2.83;;;;;;;9.68;93.93;100778.03;5082978;28;20035;-78
2022/04/05 09:48:21;;;;;;;7.00;3.55;;;;;;;9.70;93.60;100776.22;5119379;27;20039;-78
2022/04/05 09:51:05;;;;;;;6.10;3.33;;;;;;;9.72;93.17;100777.84;5093884;28;20039;-78
2022/04/05 09:53:45;;;;;;;5.82;3.17;;;;;;;9.73;93.13;100783.94;5114086;27;20072;-78
2022/04/05 09:56:22;;;;;;;7.78;3.40;;;;;;;9.75;93.25;100784.72;5119668;27;20031;-78
2022/04/05 09:58:56;;;;;;;5.25;3.13;;;;;;;9.77;93.02;100786.38;5107701;27;20035;-78
2022/04/05 10:01:27;;;;;;;6.03;3.30;;;;;;;9.75;93.45;100775.13;5117277;27;20036;-78
2022/04/05 10:03:56;;;;;;;5.65;3.85;;;;;;;9.77;93.34;100782.94;5112200;27;20031;-78
2022/04/05 10:06:22;;;;;;;10.20;3.20;;;;;;;9.77;93.76;100773.31;5129300;27;20535;-78
2022/04/05 10:08:48;;;;;;;6.10;3.58;;;;;;;9.76;93.71;100782.06;5127336;27;20063;-78
2022/04/05 10:11:14;;;;;;;5.95;3.28;;;;;;;9.79;93.96;100783.72;5121794;27;20024;-78
2022/04/05 10:13:40;;;;;;;4.60;3.25;;;;;;;9.78;94.22;100777.63;5127916;27;20345;-78
2022/04/05 10:16:08;;;;;;;5.45;3.30;;;;;;;9.79;94.47;100778.50;5110869;27;20094;-78
2022/04/05 10:18:35;;;;;;;8.32;3.72;;;;;;;9.80;95.07;100788.91;5107766;27;20133;-78
2022/04/05 10:21:02;;;;;;;5.30;3.75;;;;;;;9.81;95.18;100771.44;5124268;27;20063;-78
2022/04/05 10:23:28;;;;;;;5.90;3.47;;;;;;;9.84;95.57;100775.69;5124940;27;20265;-79
2022/04/05 10:25:54;;;;;;;8.57;4.18;;;;;;;9.89;95.44;100773.75;5106584;27;20273;-78
2022/04/05 10:28:26;;;;;;;11.23;4.30;;;;;;;9.93;95.98;100778.81;5107859;28;20023;-78
2022/04/05 10:31:01;;;;;;;7.65;4.00;;;;;;;9.95;95.62;100776.13;5110704;27;20246;-78
2022/04/05 10:33:35;;;;;;;7.05;4.15;;;;;;;9.96;95.45;100781.28;5112940;28;20030;-78
2022/04/05 10:36:01;;;;;;;7.00;4.80;;;;;;;9.98;95.20;100781.22;5132429;27;20046;-79
2022/04/05 10:38:29;;;;;;;7.53;4.35;;;;;;;10.01;95.00;100788.97;5113212;28;20040;-79
2022/04/05 10:41:19;;;;;;;8.13;4.20;;;;;;;10.02;94.76;100780.19;5089672;27;20117;-79
2022/04/05 10:43:46;;;;;;;6.40;4.13;;;;;;;10.04;94.84;100781.00;5106108;27;20031;-79
2022/04/05 10:46:12;;;;;;;6.90;4.60;;;;;;;10.04;94.51;100785.38;5107120;27;20035;-78
2022/04/05 10:48:54;;;;;;;6.70;4.57;;;;;;;10.08;94.48;100800.91;5116658;27;20597;-79
2022/04/05 10:51:41;;;;;;;10.23;4.53;;;;;;;10.06;93.92;100788.78;5120298;27;20034;-78
2022/04/05 10:54:17;;;;;;;8.20;4.07;;;;;;;10.07;93.92;100774.78;5083578;28;20036;-79
2022/04/05 10:57:15;;;;;;;12.10;4.70;;;;;;;10.07;93.65;100788.72;5111779;27;20038;-78
2022/04/05 10:59:54;;;;;;;9.90;4.80;;;;;;;10.10;94.37;100780.75;5104517;28;20227;-78
2022/04/05 11:02:31;;;;;;;8.52;4.40;;;;;;;10.12;94.10;100781.53;5093295;28;20078;-78
2022/04/05 11:05:03;;;;;;;6.18;4.38;;;;;;;10.10;94.15;100783.38;5096065;28;20316;-78
2022/04/05 11:07:29;;;;;;;9.13;5.00;;;;;;;10.12;94.46;100781.53;5102627;28;20056;-79
2022/04/05 11:09:59;;;;;;;9.75;4.78;;;;;;;10.13;94.29;100785.88;5083527;28;20349;-79
2022/04/05 11:12:28;;;;;;;7.88;4.15;;;;;;;10.13;94.18;100770.19;5113370;28;20023;-79
2022/04/05 11:14:56;;;;;;;8.85;4.68;;;;;;;10.17;94.30;100769.13;5107326;27;20312;-78
2022/04/05 11:17:25;;;;;;;5.57;4.10;;;;;;;10.18;94.38;100765.59;5088511;27;20389;-79
2022/04/05 11:19:53;;;;;;;8.38;4.68;;;;;;;10.21;94.33;100764.63;5116286;27;20092;-78
2022/04/05 11:22:23;;;;;;;6.18;4.65;;;;;;;10.22;94.21;100761.09;5134717;27;20346;-78
2022/04/05 11:25:10;;;;;;;11.68;4.35;;;;;;;10.23;93.88;100762.81;5108410;27;20067;-78
2022/04/05 11:27:48;;;;;;;8.17;4.30;;;;;;;10.25;94.39;100754.88;5105536;28;20032;-79
2022/04/05 11:30:26;;;;;;;5.28;4.15;;;;;;;10.26;94.13;100764.44;5104434;28;20369;-78
2022/04/05 11:33:14;;;;;;;6.70;4.57;;;;;;;10.28;94.37;100792.25;5107603;27;20027;-79